createdAt,value
2022-12-22T00:01:14.784Z,99898.34
2022-12-22T00:03:59.916Z,99898.47
2022-12-22T00:06:45.130Z,99890.78
2022-12-22T00:09:29.859Z,99891.38
2022-12-22T00:12:14.996Z,99894.72
2022-12-22T00:15:01.347Z,99888.38
2022-12-22T00:17:47.789Z,99885.13
2022-12-22T00:20:38.729Z,99882.63
2022-12-22T00:23:24.232Z,99877.34
2022-12-22T00:26:09.295Z,99873.28
2022-12-22T00:28:55.192Z,99858.41
2022-12-22T00:31:40.407Z,99855.66
2022-12-22T00:34:33.193Z,99855.41
2022-12-22T00:37:18.486Z,99852.44
2022-12-22T00:40:03.444Z,99842.22
2022-12-22T00:42:48.741Z,99834.28
2022-12-22T00:45:34.031Z,99837.66
2022-12-22T00:48:19.809Z,99834.19
2022-12-22T00:51:05.094Z,99841.34
2022-12-22T00:53:50.510Z,99827.31
2022-12-22T00:56:35.637Z,99826.84
2022-12-22T00:59:20.836Z,99819.16
2022-12-22T01:02:05.728Z,99812.53
2022-12-22T01:04:50.721Z,99812.53
2022-12-22T01:07:37.529Z,99804.28
2022-12-22T01:10:22.623Z,99811.47
2022-12-22T01:13:07.588Z,99796.63
2022-12-22T01:15:52.411Z,99796.63
2022-12-22T01:18:37.631Z,99787.50
2022-12-22T01:21:22.911Z,99791.59
2022-12-22T01:24:07.692Z,99786.09
2022-12-22T01:26:52.842Z,99791.59
2022-12-22T01:29:37.583Z,99789.91
2022-12-22T01:32:23.052Z,99780.81
2022-12-22T01:35:08.084Z,99774.47
2022-12-22T01:37:52.840Z,99782.16
2022-12-22T01:40:41.394Z,99774.72
2022-12-22T01:43:45.523Z,99774.13
2022-12-22T01:46:46.661Z,99765.75
2022-12-22T01:49:39.624Z,99761.06
2022-12-22T01:52:26.636Z,99760.50
2022-12-22T01:55:15.105Z,99739.28
2022-12-22T01:58:00.549Z,99733.50
2022-12-22T02:00:45.936Z,99728.59
2022-12-22T02:03:35.664Z,99733.59
2022-12-22T02:06:36.138Z,99725.91
2022-12-22T02:09:45.622Z,99729.78
2022-12-22T02:12:43.728Z,99725.09
2022-12-22T02:15:34.788Z,99729.78
2022-12-22T02:18:29.292Z,99719.59
2022-12-22T02:21:20.206Z,99722.34
2022-12-22T02:24:27.177Z,99717.06
2022-12-22T02:27:15.026Z,99713.25
2022-12-22T02:30:23.578Z,99703.88
2022-12-22T02:33:10.027Z,99695.03
2022-12-22T02:36:08.317Z,99687.94
2022-12-22T02:38:56.075Z,99683.50
2022-12-22T02:41:47.230Z,99681.34
2022-12-22T02:44:46.752Z,99668.63
2022-12-22T02:47:57.656Z,99671.38
2022-12-22T02:50:52.653Z,99663.97
2022-12-22T02:53:39.192Z,99655.41
2022-12-22T02:56:28.996Z,99655.41
2022-12-22T02:59:15.160Z,99656.25
2022-12-22T03:02:02.566Z,99657.09
2022-12-22T03:04:48.108Z,99656.88
2022-12-22T03:07:33.393Z,99648.59
2022-12-22T03:10:18.454Z,99640.88
2022-12-22T03:13:03.388Z,99640.66
2022-12-22T03:15:48.240Z,99640.06
2022-12-22T03:18:33.299Z,99627.38
2022-12-22T03:21:18.745Z,99624.63
2022-12-22T03:24:04.131Z,99610.25
2022-12-22T03:26:30.726Z,99613.50
2022-12-22T03:28:57.123Z,99607.47
2022-12-22T03:31:23.638Z,99606.66
2022-12-22T03:33:50.259Z,99587.63
2022-12-22T03:36:16.809Z,99586.78
2022-12-22T03:38:43.143Z,99582.00
2022-12-22T03:41:29.520Z,99579.81
2022-12-22T03:44:14.406Z,99580.09
2022-12-22T03:46:40.889Z,99570.41
2022-12-22T03:49:09.981Z,99568.75
2022-12-22T03:51:47.761Z,99562.16
2022-12-22T03:54:19.936Z,99561.03
2022-12-22T03:56:47.191Z,99550.53
2022-12-22T03:59:14.173Z,99556.03
2022-12-22T04:01:44.122Z,99550.03
2022-12-22T04:04:12.045Z,99552.53
2022-12-22T04:06:38.979Z,99539.31
2022-12-22T04:09:05.458Z,99551.19
2022-12-22T04:11:50.420Z,99550.66
2022-12-22T04:14:17.979Z,99548.19
2022-12-22T04:16:44.609Z,99546.84
2022-12-22T04:19:11.067Z,99557.34
2022-12-22T04:21:38.229Z,99540.81
2022-12-22T04:24:05.048Z,99546.09
2022-12-22T04:26:32.110Z,99541.13
2022-12-22T04:28:58.535Z,99532.88
2022-12-22T04:31:24.991Z,99519.69
2022-12-22T04:33:51.542Z,99527.72
2022-12-22T04:36:18.042Z,99509.53
2022-12-22T04:38:44.833Z,99517.78
2022-12-22T04:41:11.659Z,99510.56
2022-12-22T04:43:38.508Z,99504.22
2022-12-22T04:46:05.481Z,99503.38
2022-12-22T04:48:32.559Z,99503.13
2022-12-22T04:51:00.323Z,99493.78
2022-12-22T04:53:28.489Z,99475.09
2022-12-22T04:55:58.864Z,99465.47
2022-12-22T04:58:25.969Z,99461.63
2022-12-22T05:00:52.443Z,99458.34
2022-12-22T05:03:19.291Z,99461.69
2022-12-22T05:05:45.861Z,99473.50
2022-12-22T05:08:12.293Z,99470.97
2022-12-22T05:10:38.878Z,99457.19
2022-12-22T05:13:05.329Z,99460.22
2022-12-22T05:15:34.060Z,99468.22
2022-12-22T05:18:01.341Z,99453.59
2022-12-22T05:20:28.355Z,99456.09
2022-12-22T05:22:55.377Z,99455.50
2022-12-22T05:25:21.888Z,99455.78
2022-12-22T05:27:49.685Z,99465.41
2022-12-22T05:30:17.517Z,99462.88
2022-12-22T05:32:43.966Z,99463.13
2022-12-22T05:35:10.981Z,99455.69
2022-12-22T05:37:37.464Z,99456.50
2022-12-22T05:40:04.769Z,99452.09
2022-12-22T05:42:37.282Z,99457.34
2022-12-22T05:45:09.720Z,99454.38
2022-12-22T05:47:36.366Z,99451.63
2022-12-22T05:50:02.779Z,99447.75
2022-12-22T05:52:29.296Z,99443.91
2022-12-22T05:54:55.793Z,99438.41
2022-12-22T05:57:22.811Z,99437.06
2022-12-22T05:59:49.242Z,99434.06
2022-12-22T06:02:16.218Z,99434.06
2022-12-22T06:04:42.811Z,99432.13
2022-12-22T06:07:09.535Z,99429.09
2022-12-22T06:09:36.050Z,99432.69
2022-12-22T06:12:02.726Z,99421.97
2022-12-22T06:14:29.175Z,99421.16
2022-12-22T06:16:55.545Z,99445.72
2022-12-22T06:19:21.945Z,99495.34
2022-12-22T06:21:48.281Z,99480.47
2022-12-22T06:24:14.678Z,99476.81
2022-12-22T06:26:41.053Z,99477.66
2022-12-22T06:29:07.600Z,99473.53
2022-12-22T06:31:34.029Z,99483.75
2022-12-22T06:34:00.458Z,99477.97
2022-12-22T06:36:26.901Z,99478.81
2022-12-22T06:38:53.317Z,99480.41
2022-12-22T06:41:39.785Z,99477.13
2022-12-22T06:44:06.369Z,99500.88
2022-12-22T06:46:32.882Z,99505.63
2022-12-22T06:48:59.333Z,99503.19
2022-12-22T06:51:25.757Z,99517.53
2022-12-22T06:53:52.133Z,99512.84
2022-12-22T06:56:18.534Z,99512.63
2022-12-22T06:58:44.984Z,99519.53
2022-12-22T07:01:11.409Z,99523.13
2022-12-22T07:03:37.845Z,99516.53
2022-12-22T07:06:04.679Z,99514.34
2022-12-22T07:08:31.115Z,99521.53
2022-12-22T07:11:00.663Z,99527.59
2022-12-22T07:13:34.004Z,99533.41
2022-12-22T07:16:05.452Z,99530.31
2022-12-22T07:18:34.252Z,99540.75
2022-12-22T07:21:02.678Z,99538.59
2022-12-22T07:23:30.064Z,99530.31
2022-12-22T07:25:56.687Z,99541.34
2022-12-22T07:28:23.764Z,99553.72
2022-12-22T07:30:50.662Z,99557.59
2022-12-22T07:33:17.534Z,99554.81
2022-12-22T07:35:44.126Z,99565.00
2022-12-22T07:38:10.712Z,99561.09
2022-12-22T07:40:41.829Z,99571.22
2022-12-22T07:43:09.040Z,99566.53
2022-12-22T07:45:36.436Z,99561.00
2022-12-22T07:48:27.043Z,99561.84
2022-12-22T07:50:55.175Z,99574.81
2022-12-22T07:53:21.705Z,99581.41
2022-12-22T07:55:48.107Z,99581.06
2022-12-22T07:58:14.608Z,99582.41
2022-12-22T08:00:41.043Z,99579.09
2022-12-22T08:03:07.512Z,99581.25
2022-12-22T08:05:33.979Z,99583.44
2022-12-22T08:08:00.391Z,99584.78
2022-12-22T08:10:26.818Z,99592.44
2022-12-22T08:12:53.269Z,99594.88
2022-12-22T08:15:19.729Z,99595.94
2022-12-22T08:17:46.165Z,99600.88
2022-12-22T08:20:12.655Z,99603.31
2022-12-22T08:22:39.136Z,99608.00
2022-12-22T08:25:05.825Z,99623.94
2022-12-22T08:27:42.445Z,99625.03
2022-12-22T08:30:10.003Z,99632.69
2022-12-22T08:32:38.385Z,99646.75
2022-12-22T08:35:05.943Z,99647.59
2022-12-22T08:37:40.973Z,99651.44
2022-12-22T08:40:20.413Z,99666.03
2022-12-22T08:42:48.382Z,99665.78
2022-12-22T08:45:14.917Z,99662.78
2022-12-22T08:47:41.403Z,99668.03
2022-12-22T08:50:08.619Z,99681.56
2022-12-22T08:52:35.136Z,99686.25
2022-12-22T08:55:01.582Z,99698.69
2022-12-22T08:57:28.387Z,99705.03
2022-12-22T08:59:55.015Z,99702.03
2022-12-22T09:02:22.244Z,99700.97
2022-12-22T09:04:48.777Z,99706.22
2022-12-22T09:07:15.891Z,99711.22
2022-12-22T09:09:42.336Z,99705.72
2022-12-22T09:12:08.794Z,99710.78
2022-12-22T09:14:35.231Z,99719.06
2022-12-22T09:17:01.715Z,99722.38
2022-12-22T09:19:28.194Z,99724.06
2022-12-22T09:21:55.011Z,99731.00
2022-12-22T09:24:21.459Z,99739.25
2022-12-22T09:26:47.879Z,99733.50
2022-12-22T09:29:15.444Z,99748.94
2022-12-22T09:31:43.140Z,99766.09
2022-12-22T09:34:15.317Z,99773.28
2022-12-22T09:36:44.884Z,99776.06
2022-12-22T09:39:11.670Z,99782.63
2022-12-22T09:41:59.237Z,99795.81
2022-12-22T09:44:40.236Z,99806.84
2022-12-22T09:47:17.619Z,99812.38
2022-12-22T09:49:44.412Z,99831.09
2022-12-22T09:52:23.828Z,99841.28
2022-12-22T09:54:50.389Z,99852.53
2022-12-22T09:57:16.800Z,99850.06
2022-12-22T09:59:43.148Z,99860.81
2022-12-22T10:02:31.694Z,99872.13
2022-12-22T10:05:10.365Z,99866.84
2022-12-22T10:07:40.026Z,99870.69
2022-12-22T10:10:28.245Z,99876.78
2022-12-22T10:12:56.764Z,99871.84
2022-12-22T10:15:23.879Z,99882.75
2022-12-22T10:17:54.619Z,99882.16
2022-12-22T10:20:21.002Z,99883.50
2022-12-22T10:22:53.209Z,99881.97
2022-12-22T10:25:52.281Z,99890.97
2022-12-22T10:28:27.753Z,99903.56
2022-12-22T10:31:19.401Z,99886.31
2022-12-22T10:33:48.381Z,99898.19
2022-12-22T10:36:24.232Z,99917.81
2022-12-22T10:38:56.701Z,99919.28
2022-12-22T10:41:26.788Z,99927.41
2022-12-22T10:44:02.406Z,99920.81
2022-12-22T10:46:37.139Z,99936.13
2022-12-22T10:49:20.418Z,99927.50
2022-12-22T10:51:56.627Z,99932.06
2022-12-22T10:54:36.726Z,99928.88
2022-12-22T10:57:15.881Z,99929.25
2022-12-22T10:59:56.677Z,99938.94
2022-12-22T11:02:28.073Z,99943.13
2022-12-22T11:05:01.683Z,99949.00
2022-12-22T11:07:31.825Z,99950.78
2022-12-22T11:09:58.365Z,99953.63
2022-12-22T11:12:57.441Z,99956.72
2022-12-22T11:15:32.912Z,99962.34
2022-12-22T11:18:23.604Z,99967.03
2022-12-22T11:21:08.498Z,99969.28
2022-12-22T11:23:37.688Z,99968.78
2022-12-22T11:26:11.653Z,99970.59
2022-12-22T11:29:14.408Z,99972.72
2022-12-22T11:32:07.273Z,99970.66
2022-12-22T11:34:36.274Z,99970.53
2022-12-22T11:37:31.407Z,99963.22
2022-12-22T11:40:18.776Z,99967.81
2022-12-22T11:43:18.665Z,99977.44
2022-12-22T11:46:03.500Z,99960.22
2022-12-22T11:48:52.996Z,99972.97
2022-12-22T11:51:56.910Z,99980.56
2022-12-22T11:54:54.554Z,99987.47
2022-12-22T11:57:45.217Z,99997.81
2022-12-22T12:00:14.101Z,100001.47
2022-12-22T12:02:58.001Z,100005.13
2022-12-22T12:05:44.691Z,100008.03
2022-12-22T12:08:38.746Z,100014.25
2022-12-22T12:11:23.224Z,100017.72
2022-12-22T12:14:00.288Z,100011.00
2022-12-22T12:16:39.066Z,100017.28
2022-12-22T12:19:44.373Z,100027.19
2022-12-22T12:22:36.531Z,100021.59
2022-12-22T12:25:28.038Z,100024.84
2022-12-22T12:28:15.499Z,100037.25
2022-12-22T12:30:56.767Z,100041.34
2022-12-22T12:33:50.294Z,100042.09
2022-12-22T12:36:35.536Z,100043.94
2022-12-22T12:39:27.930Z,100051.09
2022-12-22T12:42:15.507Z,100060.94
2022-12-22T12:44:42.224Z,100063.59
2022-12-22T12:47:27.966Z,100057.97
2022-12-22T12:50:03.359Z,100049.84
2022-12-22T12:52:38.690Z,100053.09
2022-12-22T12:55:40.288Z,100043.31
2022-12-22T12:58:11.351Z,100049.06
2022-12-22T13:00:43.116Z,100055.59
2022-12-22T13:04:01.185Z,100062.13
2022-12-22T13:06:49.781Z,100063.56
2022-12-22T13:09:50.717Z,100056.03
2022-12-22T13:12:38.822Z,100068.41
2022-12-22T13:15:32.540Z,100072.00
2022-12-22T13:18:00.454Z,100067.56
2022-12-22T13:20:32.634Z,100070.59
2022-12-22T13:23:01.877Z,100068.06
2022-12-22T13:25:55.754Z,100062.19
2022-12-22T13:28:23.874Z,100067.97
2022-12-22T13:30:57.782Z,100069.06
2022-12-22T13:33:27.000Z,100067.88
2022-12-22T13:35:58.845Z,100070.38
2022-12-22T13:38:29.352Z,100080.69
2022-12-22T13:40:58.077Z,100082.09
2022-12-22T13:43:27.497Z,100075.28
2022-12-22T13:45:58.952Z,100074.78
2022-12-22T13:48:44.609Z,100084.97
2022-12-22T13:51:18.932Z,100091.34
2022-12-22T13:54:07.824Z,100098.06
2022-12-22T13:56:48.049Z,100097.44
2022-12-22T13:59:33.587Z,100097.72
2022-12-22T14:02:15.029Z,100106.84
2022-12-22T14:04:43.903Z,100105.34
2022-12-22T14:07:15.371Z,100095.28
2022-12-22T14:09:46.706Z,100109.53
2022-12-22T14:12:17.431Z,100104.25
2022-12-22T14:14:46.147Z,100101.00
2022-12-22T14:17:19.439Z,100093.00
2022-12-22T14:19:51.193Z,100088.66
2022-12-22T14:22:23.141Z,100076.59
2022-12-22T14:24:58.953Z,100075.75
2022-12-22T14:27:55.820Z,100082.31
2022-12-22T14:30:25.799Z,100088.28
2022-12-22T14:32:56.414Z,100083.09
2022-12-22T14:35:22.947Z,100076.25
2022-12-22T14:37:51.726Z,100075.50
2022-12-22T14:40:36.079Z,100072.78
2022-12-22T14:43:05.956Z,100081.13
2022-12-22T14:45:33.266Z,100081.47
2022-12-22T14:47:59.684Z,100077.06
2022-12-22T14:50:28.343Z,100074.38
2022-12-22T14:53:04.948Z,100076.59
2022-12-22T14:55:36.118Z,100072.81
2022-12-22T14:58:08.813Z,100067.56
2022-12-22T15:00:37.104Z,100072.91
2022-12-22T15:03:24.477Z,100070.53
2022-12-22T15:05:52.333Z,100075.00
2022-12-22T15:08:38.745Z,100080.03
2022-12-22T15:11:15.334Z,100078.75
2022-12-22T15:13:43.311Z,100079.72
2022-12-22T15:16:14.570Z,100076.88
2022-12-22T15:18:41.804Z,100069.78
2022-12-22T15:21:12.341Z,100074.97
2022-12-22T15:23:39.054Z,100068.97
2022-12-22T15:26:05.892Z,100068.00
2022-12-22T15:28:32.857Z,100070.63
2022-12-22T15:31:00.740Z,100069.41
2022-12-22T15:33:27.277Z,100064.88
2022-12-22T15:35:53.724Z,100054.78
2022-12-22T15:38:22.579Z,100059.94
2022-12-22T15:40:50.057Z,100053.22
2022-12-22T15:43:55.081Z,100053.47
2022-12-22T15:46:06.688Z,100058.38
2022-12-22T15:48:36.278Z,100055.03
2022-12-22T15:51:04.333Z,100042.81
2022-12-22T15:53:33.476Z,100038.84
2022-12-22T15:56:00.910Z,100044.84
2022-12-22T15:58:32.970Z,100039.81
2022-12-22T16:00:59.431Z,100041.38
2022-12-22T16:03:26.017Z,100033.31
2022-12-22T16:05:53.233Z,100034.66
2022-12-22T16:08:31.290Z,100040.66
2022-12-22T16:10:57.847Z,100047.44
2022-12-22T16:13:27.164Z,100042.19
2022-12-22T16:15:56.308Z,100047.09
2022-12-22T16:18:22.929Z,100042.91
2022-12-22T16:20:52.584Z,100035.97
2022-12-22T16:23:25.906Z,100037.28
2022-12-22T16:26:01.030Z,100032.00
2022-12-22T16:28:28.923Z,100032.00
2022-12-22T16:30:55.353Z,100035.34
2022-12-22T16:33:21.846Z,100027.69
2022-12-22T16:35:48.527Z,100034.88
2022-12-22T16:38:19.082Z,100027.44
2022-12-22T16:40:51.596Z,100018.94
2022-12-22T16:46:15.478Z,100025.78
2022-12-22T16:48:54.056Z,100023.88
2022-12-22T16:51:35.641Z,100019.44
2022-12-22T16:54:02.261Z,100019.44
2022-12-22T16:56:30.691Z,100012.25
2022-12-22T16:58:58.179Z,100009.75
2022-12-22T17:01:45.505Z,100002.28
2022-12-22T17:04:17.672Z,100008.06
2022-12-22T17:06:47.797Z,100003.38
2022-12-22T17:09:22.891Z,100005.31
2022-12-22T17:11:49.465Z,100001.09
2022-12-22T17:14:31.390Z,99997.25
2022-12-22T17:16:58.626Z,100004.31
2022-12-22T17:19:25.090Z,99995.22
2022-12-22T17:21:53.351Z,99995.22
2022-12-22T17:24:27.773Z,99987.22
2022-12-22T17:26:58.131Z,99983.38
2022-12-22T17:29:25.536Z,99980.84
2022-12-22T17:31:56.147Z,99975.34
2022-12-22T17:34:22.625Z,99970.06
2022-12-22T17:36:49.673Z,99968.41
2022-12-22T17:39:20.220Z,99954.66
2022-12-22T17:41:52.272Z,99957.63
2022-12-22T17:44:24.167Z,99952.13
2022-12-22T17:46:50.763Z,99946.63
2022-12-22T17:49:19.791Z,99943.03
2022-12-22T17:51:46.503Z,99946.13
2022-12-22T17:54:22.352Z,99939.56
2022-12-22T17:56:49.203Z,99954.16
2022-12-22T17:59:15.625Z,99953.09
2022-12-22T18:01:42.212Z,99948.03
2022-12-22T18:04:09.864Z,99944.22
2022-12-22T18:06:39.467Z,99943.16
2022-12-22T18:09:08.111Z,99935.38
2022-12-22T18:11:36.362Z,99934.75
2022-12-22T18:14:05.594Z,99926.75
2022-12-22T18:16:32.195Z,99925.06
2022-12-22T18:18:58.621Z,99922.53
2022-12-22T18:21:25.419Z,99909.88
2022-12-22T18:23:52.229Z,99918.59
2022-12-22T18:26:25.347Z,99900.41
2022-12-22T18:28:51.937Z,99905.31
2022-12-22T18:31:19.033Z,99902.81
2022-12-22T18:33:45.767Z,99895.63
2022-12-22T18:36:20.773Z,99901.97
2022-12-22T18:38:48.325Z,99893.09
2022-12-22T18:41:21.007Z,99887.59
2022-12-22T18:43:48.098Z,99882.09
2022-12-22T18:46:14.624Z,99877.44
2022-12-22T18:48:41.171Z,99882.72
2022-12-22T18:51:17.702Z,99877.19
2022-12-22T18:53:44.492Z,99878.28
2022-12-22T18:56:12.600Z,99871.06
2022-12-22T18:58:40.288Z,99870.25
2022-12-22T19:01:11.854Z,99866.06
2022-12-22T19:03:38.284Z,99860.56
2022-12-22T19:06:04.954Z,99863.56
2022-12-22T19:08:31.634Z,99853.38
2022-12-22T19:11:00.311Z,99857.81
2022-12-22T19:13:27.165Z,99850.63
2022-12-22T19:15:54.587Z,99853.97
2022-12-22T19:18:26.611Z,99854.56
2022-12-22T19:20:54.558Z,99860.91
2022-12-22T19:23:22.899Z,99851.31
2022-12-22T19:25:53.191Z,99850.50
2022-12-22T19:28:33.605Z,99845.81
2022-12-22T19:31:00.427Z,99838.91
2022-12-22T19:33:38.523Z,99839.72
2022-12-22T19:36:05.696Z,99836.41
2022-12-22T19:38:34.416Z,99819.88
2022-12-22T19:41:04.207Z,99824.78
2022-12-22T19:43:31.080Z,99815.94
2022-12-22T19:45:57.829Z,99809.22
2022-12-22T19:48:27.014Z,99813.06
2022-12-22T19:50:54.220Z,99803.13
2022-12-22T19:53:21.704Z,99805.03
2022-12-22T19:55:54.494Z,99809.72
2022-12-22T19:58:25.544Z,99807.19
2022-12-22T20:00:53.092Z,99805.50
2022-12-22T20:03:22.752Z,99801.91
2022-12-22T20:05:49.686Z,99801.91
2022-12-22T20:08:16.788Z,99790.91
2022-12-22T20:10:43.937Z,99780.16
2022-12-22T20:13:21.665Z,99779.09
2022-12-22T20:15:49.217Z,99781.00
2022-12-22T20:18:21.717Z,99774.41
2022-12-22T20:21:02.921Z,99773.31
2022-12-22T20:23:31.276Z,99773.69
2022-12-22T20:26:13.736Z,99778.97
2022-12-22T20:28:40.614Z,99773.19
2022-12-22T20:31:08.825Z,99770.78
2022-12-22T20:33:35.292Z,99777.16
2022-12-22T20:36:02.784Z,99771.41
2022-12-22T20:38:29.113Z,99779.66
2022-12-22T20:40:55.539Z,99775.84
2022-12-22T20:43:24.359Z,99771.16
2022-12-22T20:45:53.192Z,99767.59
2022-12-22T20:48:31.593Z,99768.41
2022-12-22T20:50:58.020Z,99764.22
2022-12-22T20:53:24.529Z,99767.81
2022-12-22T20:55:51.122Z,99769.50
2022-12-22T20:58:26.918Z,99775.84
2022-12-22T21:00:57.550Z,99775.84
2022-12-22T21:03:25.263Z,99779.66
2022-12-22T21:05:52.309Z,99775.84
2022-12-22T21:08:21.927Z,99775.84
2022-12-22T21:10:49.404Z,99772.00
2022-12-22T21:13:16.994Z,99775.34
2022-12-22T21:15:45.658Z,99765.19
2022-12-22T21:18:15.860Z,99761.34
2022-12-22T21:20:43.204Z,99766.84
2022-12-22T21:23:09.783Z,99757.50
2022-12-22T21:25:40.635Z,99760.03
2022-12-22T21:28:15.991Z,99744.59
2022-12-22T21:30:42.466Z,99742.06
2022-12-22T21:33:09.170Z,99737.41
2022-12-22T21:35:36.962Z,99740.16
2022-12-22T21:38:04.292Z,99744.81
2022-12-22T21:40:32.295Z,99741.22
2022-12-22T21:42:59.151Z,99741.50
2022-12-22T21:45:28.149Z,99735.16
2022-12-22T21:47:54.584Z,99740.06
2022-12-22T21:50:26.962Z,99739.81
2022-12-22T21:52:53.599Z,99735.97
2022-12-22T21:55:29.484Z,99731.31
2022-12-22T21:57:56.510Z,99730.47
2022-12-22T22:00:23.983Z,99734.56
2022-12-22T22:02:51.353Z,99731.53
2022-12-22T22:05:27.501Z,99734.31
2022-12-22T22:07:55.339Z,99737.31
2022-12-22T22:10:24.946Z,99737.31
2022-12-22T22:12:52.235Z,99732.88
2022-12-22T22:15:20.274Z,99724.63
2022-12-22T22:17:47.152Z,99724.00
2022-12-22T22:20:16.655Z,99733.09
2022-12-22T22:22:43.462Z,99733.38
2022-12-22T22:25:11.062Z,99733.38
2022-12-22T22:27:41.824Z,99739.09
2022-12-22T22:30:15.619Z,99738.53
2022-12-22T22:32:42.650Z,99739.81
2022-12-22T22:35:09.683Z,99731.56
2022-12-22T22:37:36.214Z,99739.25
2022-12-22T22:40:03.072Z,99742.47
2022-12-22T22:42:29.441Z,99738.03
2022-12-22T22:44:55.842Z,99733.03
2022-12-22T22:47:22.260Z,99745.34
2022-12-22T22:49:48.736Z,99745.59
2022-12-22T22:52:15.607Z,99748.34
2022-12-22T22:54:42.065Z,99750.84
2022-12-22T22:57:08.504Z,99751.69
2022-12-22T22:59:34.958Z,99748.34
2022-12-22T23:02:01.505Z,99763.78
2022-12-22T23:04:28.100Z,99751.94
2022-12-22T23:06:54.569Z,99750.47
2022-12-22T23:09:21.078Z,99744.97
2022-12-22T23:11:47.470Z,99743.31
2022-12-22T23:14:13.861Z,99744.41
2022-12-22T23:16:40.262Z,99743.81
2022-12-22T23:19:06.788Z,99749.31
2022-12-22T23:21:33.593Z,99742.13
2022-12-22T23:24:00.120Z,99738.53
2022-12-22T23:26:27.051Z,99743.81
2022-12-22T23:28:59.281Z,99737.47
2022-12-22T23:31:29.439Z,99736.38
2022-12-22T23:33:57.116Z,99736.16
2022-12-22T23:36:23.656Z,99726.81
2022-12-22T23:38:51.740Z,99737.56
2022-12-22T23:41:18.887Z,99728.25
2022-12-22T23:43:45.389Z,99732.06
2022-12-22T23:46:14.292Z,99734.59
2022-12-22T23:48:42.057Z,99729.66
2022-12-22T23:51:11.256Z,99725.84
2022-12-22T23:53:38.601Z,99724.16
2022-12-22T23:56:05.558Z,99724.16
2022-12-22T23:58:31.919Z,99728.00
